Time;durP1;ratioP1;P1;durP2;ratioP2;P2;SDS_P1;SDS_P2;PMS_P1;PMS_P2;Temp;Humidity;BMP_temperature;BMP_pressure;BME280_temperature;BME280_humidity;BME280_pressure;Samples;Min_cycle;Max_cycle;Signal;HPM_P1;HPM_P2
2021/09/28 00:02:10;;;;;;;12.13;3.08;;;;;;;11.87;100.00;102113.38;5008941;28;20162;-69
2021/09/28 00:04:38;;;;;;;18.77;3.85;;;;;;;11.90;100.00;102114.22;5011103;28;20125;-70
2021/09/28 00:07:16;;;;;;;12.82;2.83;;;;;;;11.91;100.00;102120.47;5008780;28;20067;-71
2021/09/28 00:09:44;;;;;;;14.68;3.55;;;;;;;11.86;100.00;102125.84;5008801;28;20053;-69
2021/09/28 00:12:14;;;;;;;12.27;2.85;;;;;;;11.85;100.00;102131.22;5002938;28;20061;-69
2021/09/28 00:14:42;;;;;;;12.82;3.05;;;;;;;11.78;100.00;102125.09;5012882;28;20764;-69
2021/09/28 00:17:10;;;;;;;11.00;3.05;;;;;;;11.73;100.00;102129.63;5014582;28;20148;-70
2021/09/28 00:19:40;;;;;;;14.30;3.25;;;;;;;11.73;100.00;102132.31;5012451;28;20638;-70
2021/09/28 00:22:08;;;;;;;9.55;2.70;;;;;;;11.69;100.00;102131.47;5010216;28;20239;-69
2021/09/28 00:24:37;;;;;;;11.70;3.25;;;;;;;11.64;100.00;102135.16;5012649;28;20056;-69
2021/09/28 00:27:05;;;;;;;12.77;3.00;;;;;;;11.64;100.00;102135.16;5008887;28;20550;-69
2021/09/28 00:29:58;;;;;;;9.13;3.00;;;;;;;11.65;100.00;102137.81;5017066;28;20067;-69
2021/09/28 00:32:26;;;;;;;13.48;3.47;;;;;;;11.67;100.00;102138.66;5006648;28;20057;-69
2021/09/28 00:34:54;;;;;;;15.90;3.47;;;;;;;11.66;100.00;102139.53;5012165;28;20516;-69
2021/09/28 00:37:23;;;;;;;8.68;2.72;;;;;;;11.66;100.00;102144.88;5011737;28;20206;-70
2021/09/28 00:39:52;;;;;;;11.48;3.17;;;;;;;11.61;100.00;102146.75;5010761;28;20048;-70
2021/09/28 00:42:19;;;;;;;10.02;3.08;;;;;;;11.56;100.00;102138.84;5014980;28;20071;-69
2021/09/28 00:44:48;;;;;;;17.00;3.30;;;;;;;11.66;100.00;102144.03;5001859;28;20132;-69
2021/09/28 00:47:16;;;;;;;9.02;2.92;;;;;;;11.62;100.00;102143.19;5006651;28;20056;-69
2021/09/28 00:49:46;;;;;;;9.82;2.80;;;;;;;11.61;100.00;102137.88;5012422;28;20052;-70
2021/09/28 00:52:18;;;;;;;15.20;3.05;;;;;;;11.63;100.00;102141.38;5002677;28;20049;-71
2021/09/28 00:54:47;;;;;;;10.55;2.90;;;;;;;11.62;100.00;102151.22;5011935;28;20548;-71
2021/09/28 00:57:16;;;;;;;13.80;3.20;;;;;;;11.65;100.00;102145.81;5010814;28;20461;-69
2021/09/28 00:59:45;;;;;;;14.52;3.05;;;;;;;11.71;100.00;102153.75;5009918;28;20056;-69
2021/09/28 01:02:15;;;;;;;15.00;2.88;;;;;;;11.70;100.00;102143.97;5004637;28;20449;-71
2021/09/28 01:04:43;;;;;;;15.18;3.28;;;;;;;11.66;100.00;102158.25;5004427;28;20345;-71
2021/09/28 01:07:11;;;;;;;20.40;3.53;;;;;;;11.69;100.00;102154.66;5015653;28;20057;-71
2021/09/28 01:09:41;;;;;;;11.07;2.50;;;;;;;11.68;100.00;102147.53;5009741;28;20084;-71
2021/09/28 01:12:12;;;;;;;11.30;3.17;;;;;;;11.66;100.00;102155.59;5007385;28;20332;-71
2021/09/28 01:14:42;;;;;;;13.38;3.50;;;;;;;11.59;100.00;102165.53;5011098;28;20049;-71
2021/09/28 01:17:13;;;;;;;10.68;2.90;;;;;;;11.61;100.00;102160.13;5008704;28;20141;-70
2021/09/28 01:19:41;;;;;;;16.08;3.33;;;;;;;11.55;100.00;102166.47;5005886;28;20655;-71
2021/09/28 01:22:13;;;;;;;19.48;3.85;;;;;;;11.55;100.00;102161.09;5006777;28;20252;-71
2021/09/28 01:24:42;;;;;;;9.65;2.65;;;;;;;11.52;100.00;102166.50;5015748;28;20049;-71
2021/09/28 01:27:10;;;;;;;13.40;2.88;;;;;;;11.51;100.00;102162.06;5008880;28;20163;-71
2021/09/28 01:29:38;;;;;;;13.30;3.30;;;;;;;11.51;100.00;102172.78;5012404;28;20060;-71
2021/09/28 01:32:06;;;;;;;14.30;3.63;;;;;;;11.49;100.00;102171.91;5011439;28;20052;-71
2021/09/28 01:34:34;;;;;;;18.67;2.85;;;;;;;11.49;100.00;102169.25;5007000;28;20521;-71
2021/09/28 01:37:02;;;;;;;15.82;2.83;;;;;;;11.47;100.00;102167.47;5011002;28;20519;-71
2021/09/28 01:39:31;;;;;;;8.18;2.67;;;;;;;11.47;100.00;102168.34;5006146;28;20053;-71
2021/09/28 01:41:59;;;;;;;9.65;3.00;;;;;;;11.47;100.00;102165.69;5007989;28;20128;-71
2021/09/28 01:44:28;;;;;;;17.55;3.08;;;;;;;11.45;100.00;102164.81;5005720;28;20087;-69
2021/09/28 01:46:56;;;;;;;12.23;3.40;;;;;;;11.45;100.00;102162.16;5009400;28;20059;-69
2021/09/28 01:49:24;;;;;;;11.25;3.30;;;;;;;11.42;100.00;102162.19;5012151;28;20488;-69
2021/09/28 01:51:51;;;;;;;10.90;2.80;;;;;;;11.42;100.00;102172.00;5003705;28;20053;-69
2021/09/28 01:54:19;;;;;;;14.88;3.22;;;;;;;11.37;100.00;102167.63;5009669;28;20071;-69
2021/09/28 01:56:49;;;;;;;15.30;3.65;;;;;;;11.38;100.00;102166.69;5006788;28;20827;-69
2021/09/28 01:59:16;;;;;;;15.10;3.13;;;;;;;11.37;100.00;102166.72;5013139;28;20049;-69
2021/09/28 02:01:44;;;;;;;12.05;3.00;;;;;;;11.29;100.00;102164.19;5017297;28;20152;-69
2021/09/28 02:04:13;;;;;;;12.52;3.75;;;;;;;11.21;100.00;102158.91;5012401;28;20536;-69
2021/09/28 02:06:41;;;;;;;12.00;3.15;;;;;;;11.25;100.00;102164.22;5016475;28;20219;-69
2021/09/28 02:09:10;;;;;;;11.10;2.70;;;;;;;11.25;100.00;102165.09;5011594;28;20169;-69
2021/09/28 02:11:38;;;;;;;10.32;3.03;;;;;;;11.34;100.00;102164.09;5009337;28;20133;-69
2021/09/28 02:14:09;;;;;;;10.98;2.90;;;;;;;11.29;100.00;102173.97;5012537;28;20131;-69
2021/09/28 02:16:38;;;;;;;10.40;2.97;;;;;;;11.25;100.00;102169.56;5014978;28;20058;-69
2021/09/28 02:19:06;;;;;;;12.95;2.53;;;;;;;11.20;100.00;102177.63;5015287;28;20060;-69
2021/09/28 02:21:34;;;;;;;10.48;2.80;;;;;;;11.18;100.00;102172.31;5005625;28;20210;-69
2021/09/28 02:24:02;;;;;;;11.32;2.63;;;;;;;11.17;100.00;102175.91;5019819;28;20049;-69
2021/09/28 02:26:30;;;;;;;13.82;2.85;;;;;;;11.15;100.00;102174.16;5013869;28;20052;-69
2021/09/28 02:28:58;;;;;;;11.88;3.03;;;;;;;11.13;100.00;102182.19;5014638;28;20560;-69
2021/09/28 02:31:27;;;;;;;14.75;2.78;;;;;;;11.15;100.00;102180.41;5012758;28;20423;-69
2021/09/28 02:33:55;;;;;;;12.13;3.13;;;;;;;11.16;100.00;102181.28;5012860;28;20057;-70
2021/09/28 02:36:23;;;;;;;12.32;2.67;;;;;;;11.14;100.00;102180.41;5012941;28;20073;-70
2021/09/28 02:38:51;;;;;;;10.25;2.67;;;;;;;11.08;100.00;102188.50;5011032;28;20220;-71
2021/09/28 02:41:19;;;;;;;8.40;3.03;;;;;;;11.07;100.00;102181.38;5009185;28;20059;-69
2021/09/28 02:43:46;;;;;;;13.82;3.13;;;;;;;11.07;100.00;102187.63;5008595;28;20100;-69
2021/09/28 02:46:14;;;;;;;11.52;2.65;;;;;;;11.06;100.00;102172.47;5010198;28;20158;-67
2021/09/28 02:48:44;;;;;;;10.43;2.85;;;;;;;11.03;100.00;102183.19;5013709;28;20469;-67
2021/09/28 02:51:12;;;;;;;11.05;3.08;;;;;;;11.07;100.00;102192.06;5011669;28;20168;-67
2021/09/28 02:53:40;;;;;;;11.57;3.05;;;;;;;11.04;100.00;102187.66;5002406;28;20326;-67
2021/09/28 02:56:08;;;;;;;11.48;2.55;;;;;;;11.06;100.00;102192.97;5011847;28;20053;-67
2021/09/28 02:58:36;;;;;;;12.98;2.70;;;;;;;10.97;100.00;102186.84;5008947;28;20063;-67
2021/09/28 03:01:04;;;;;;;9.25;2.60;;;;;;;10.99;100.00;102179.69;5011585;28;20324;-67
2021/09/28 03:03:33;;;;;;;18.77;3.92;;;;;;;10.98;100.00;102188.63;5001879;28;20059;-67
2021/09/28 03:06:02;;;;;;;10.35;2.85;;;;;;;10.92;100.00;102191.34;5010975;28;20598;-67
2021/09/28 03:08:32;;;;;;;8.70;2.90;;;;;;;11.02;100.00;102190.34;5008148;28;20049;-67
2021/09/28 03:11:00;;;;;;;11.80;3.30;;;;;;;10.93;100.00;102206.50;5006878;28;20048;-70
2021/09/28 03:13:28;;;;;;;9.75;2.92;;;;;;;10.92;100.00;102199.38;5012374;28;20056;-70
2021/09/28 03:15:57;;;;;;;11.45;3.15;;;;;;;10.95;100.00;102203.81;5012156;28;20076;-70
2021/09/28 03:18:25;;;;;;;8.80;2.95;;;;;;;10.93;100.00;102200.25;5010846;28;20056;-70
2021/09/28 03:20:53;;;;;;;7.10;2.78;;;;;;;10.87;100.00;102203.00;5013204;28;20139;-70
2021/09/28 03:23:22;;;;;;;12.55;2.85;;;;;;;10.89;100.00;102196.72;5010525;28;20228;-70
2021/09/28 03:25:50;;;;;;;15.55;3.40;;;;;;;10.90;100.00;102203.84;5013397;28;20045;-70
2021/09/28 03:28:19;;;;;;;9.20;3.58;;;;;;;10.90;100.00;102206.53;5015633;28;20049;-71
2021/09/28 03:30:47;;;;;;;12.43;3.28;;;;;;;10.87;100.00;102203.00;5011031;28;20571;-70
2021/09/28 03:33:15;;;;;;;8.07;2.90;;;;;;;10.84;100.00;102195.91;5014859;28;20060;-70
2021/09/28 03:35:43;;;;;;;11.43;3.70;;;;;;;10.79;100.00;102203.94;5011742;28;20041;-70
2021/09/28 03:38:11;;;;;;;9.82;3.05;;;;;;;10.79;100.00;102201.28;5008763;28;20295;-70
2021/09/28 03:40:41;;;;;;;21.42;3.75;;;;;;;10.80;100.00;102210.19;5009872;28;20076;-70
2021/09/28 03:43:09;;;;;;;10.27;3.28;;;;;;;10.76;100.00;102205.78;5012038;28;20493;-70
2021/09/28 03:45:38;;;;;;;11.20;3.25;;;;;;;10.76;100.00;102217.38;5012756;28;20057;-70
2021/09/28 03:48:06;;;;;;;13.85;3.33;;;;;;;10.75;100.00;102214.72;5010466;28;20166;-71
2021/09/28 03:50:35;;;;;;;11.10;3.03;;;;;;;10.79;100.00;102211.97;5014369;28;20675;-70
2021/09/28 03:53:03;;;;;;;16.33;3.65;;;;;;;10.79;100.00;102211.09;5002780;28;20824;-70
2021/09/28 03:55:33;;;;;;;11.07;3.20;;;;;;;10.83;100.00;102218.19;5011277;28;20654;-72
2021/09/28 03:58:03;;;;;;;13.70;3.03;;;;;;;10.77;100.00;102210.22;5014072;28;20072;-70
2021/09/28 04:00:31;;;;;;;10.13;3.90;;;;;;;10.78;100.00;102223.56;5008809;28;20056;-71
2021/09/28 04:03:04;;;;;;;10.65;2.92;;;;;;;10.94;100.00;102226.06;5009752;28;20049;-70
2021/09/28 04:05:32;;;;;;;12.48;3.28;;;;;;;10.89;100.00;102217.22;5010910;28;20052;-70
2021/09/28 04:08:00;;;;;;;10.77;3.35;;;;;;;10.92;100.00;102225.19;5013627;28;20056;-70
2021/09/28 04:10:28;;;;;;;12.32;3.28;;;;;;;10.90;100.00;102219.00;5012281;28;20513;-68
2021/09/28 04:12:56;;;;;;;10.73;3.05;;;;;;;10.95;100.00;102233.19;5009022;28;20431;-68
2021/09/28 04:15:25;;;;;;;9.07;3.00;;;;;;;10.92;100.00;102228.75;5011789;28;20075;-68
2021/09/28 04:17:54;;;;;;;13.25;3.42;;;;;;;10.95;100.00;102228.72;5010205;28;20072;-70
2021/09/28 04:20:22;;;;;;;15.88;3.30;;;;;;;10.92;100.00;102228.75;5013101;28;20076;-70
2021/09/28 04:22:49;;;;;;;8.50;2.50;;;;;;;10.93;100.00;102227.84;5011412;28;20064;-71
2021/09/28 04:25:17;;;;;;;9.40;2.70;;;;;;;10.98;100.00;102225.09;5013971;28;20459;-73
2021/09/28 04:28:10;;;;;;;16.02;3.33;;;;;;;11.07;100.00;102219.69;5011376;28;20134;-72
2021/09/28 04:30:39;;;;;;;12.10;3.03;;;;;;;11.08;100.00;102221.41;5016791;28;20076;-72
2021/09/28 04:33:07;;;;;;;12.48;2.95;;;;;;;11.17;100.00;102224.00;5008956;28;20053;-71
2021/09/28 04:35:58;;;;;;;14.55;3.33;;;;;;;11.19;100.00;102223.97;5009590;28;20091;-72
2021/09/28 04:38:26;;;;;;;16.35;3.33;;;;;;;11.21;100.00;102231.06;5011159;28;20056;-72
2021/09/28 04:40:54;;;;;;;16.00;3.83;;;;;;;11.24;100.00;102221.22;5008363;28;20061;-73
2021/09/28 04:43:22;;;;;;;11.63;3.15;;;;;;;11.34;100.00;102222.88;5012300;28;20045;-70
2021/09/28 04:45:51;;;;;;;9.90;3.13;;;;;;;11.37;100.00;102222.84;5008544;28;21319;-72
2021/09/28 04:48:19;;;;;;;8.35;2.60;;;;;;;11.41;100.00;102224.59;5012368;28;20061;-73
2021/09/28 04:50:49;;;;;;;17.77;3.67;;;;;;;11.42;100.00;102230.81;5009191;28;20057;-72
2021/09/28 04:53:20;;;;;;;10.48;3.00;;;;;;;11.38;100.00;102230.84;5005435;28;20064;-72
2021/09/28 04:55:49;;;;;;;12.77;2.92;;;;;;;11.35;100.00;102232.69;5010261;28;20045;-72
2021/09/28 04:58:17;;;;;;;13.05;3.47;;;;;;;11.33;100.00;102232.69;5011735;28;20567;-72
2021/09/28 05:00:44;;;;;;;17.08;3.83;;;;;;;11.31;100.00;102233.63;5011284;28;20057;-72
2021/09/28 05:03:14;;;;;;;13.95;3.75;;;;;;;11.25;100.00;102233.69;5012518;28;20152;-71
2021/09/28 05:05:42;;;;;;;10.75;3.10;;;;;;;11.28;100.00;102234.53;5012970;28;20053;-72
2021/09/28 05:08:11;;;;;;;12.93;3.88;;;;;;;11.23;100.00;102233.72;5015226;28;20059;-71
2021/09/28 05:10:39;;;;;;;20.13;3.72;;;;;;;11.24;100.00;102235.50;5013039;28;20057;-71
2021/09/28 05:13:07;;;;;;;14.48;4.35;;;;;;;11.22;100.00;102234.63;5001015;28;20052;-71
2021/09/28 05:15:36;;;;;;;13.20;3.40;;;;;;;11.14;100.00;102241.84;5012463;28;20179;-68
2021/09/28 05:18:03;;;;;;;9.65;3.30;;;;;;;11.11;100.00;102245.44;5016999;28;20107;-69
2021/09/28 05:21:00;;;;;;;15.15;3.45;;;;;;;11.07;100.00;102246.38;5009393;28;20376;-66
2021/09/28 05:23:28;;;;;;;12.40;3.30;;;;;;;11.03;100.00;102239.28;5011758;28;20048;-68
2021/09/28 05:25:56;;;;;;;13.48;4.80;;;;;;;10.98;100.00;102246.47;5010845;28;20080;-67
2021/09/28 05:28:24;;;;;;;9.35;3.60;;;;;;;10.91;100.00;102244.78;5013138;28;20046;-67
2021/09/28 05:30:57;;;;;;;11.15;3.55;;;;;;;10.92;100.00;102246.56;5009631;28;20516;-67
2021/09/28 05:33:26;;;;;;;13.55;3.70;;;;;;;10.92;100.00;102247.44;5015464;28;20115;-67
2021/09/28 05:35:55;;;;;;;11.75;3.38;;;;;;;10.87;100.00;102251.94;5009966;28;20060;-70
2021/09/28 05:38:27;;;;;;;15.88;4.03;;;;;;;10.86;100.00;102262.63;5013224;28;20179;-70
2021/09/28 05:40:55;;;;;;;9.95;3.65;;;;;;;10.81;100.00;102254.66;5011613;28;20337;-72
2021/09/28 05:43:22;;;;;;;13.40;3.78;;;;;;;10.75;100.00;102262.75;5007915;28;20134;-72
2021/09/28 05:45:50;;;;;;;10.20;3.38;;;;;;;10.74;100.00;102259.19;5017601;28;20150;-71
2021/09/28 05:48:18;;;;;;;12.30;3.65;;;;;;;10.72;100.00;102266.34;5009584;28;20060;-71
2021/09/28 05:50:47;;;;;;;12.98;3.38;;;;;;;10.76;100.00;102268.09;5013922;28;20172;-73
2021/09/28 05:53:15;;;;;;;12.95;3.50;;;;;;;10.75;100.00;102263.63;5009404;28;20144;-71
2021/09/28 05:55:44;;;;;;;15.70;3.58;;;;;;;10.78;100.00;102258.28;5012317;28;20059;-73
2021/09/28 05:58:13;;;;;;;14.52;4.50;;;;;;;10.81;100.00;102268.03;5017616;28;20056;-74
2021/09/28 06:01:05;;;;;;;13.93;3.60;;;;;;;10.79;100.00;102268.03;5013184;28;20424;-73
2021/09/28 06:03:57;;;;;;;9.82;3.70;;;;;;;10.78;100.00;102260.06;5012689;28;20681;-69
2021/09/28 06:06:27;;;;;;;12.38;3.50;;;;;;;10.86;100.00;102267.97;5008307;28;20049;-69
2021/09/28 06:09:19;;;;;;;16.10;4.18;;;;;;;10.90;100.00;102267.94;5013800;28;20114;-69
2021/09/28 06:11:49;;;;;;;14.85;4.30;;;;;;;10.88;100.00;102260.84;5010436;28;21407;-68
2021/09/28 06:14:17;;;;;;;12.82;3.92;;;;;;;10.92;100.00;102268.81;5014963;28;20538;-68
2021/09/28 06:16:44;;;;;;;12.05;4.07;;;;;;;10.99;100.00;102264.28;5014912;28;20540;-69
2021/09/28 06:19:14;;;;;;;15.32;4.40;;;;;;;11.01;100.00;102260.69;5005819;28;20065;-69
2021/09/28 06:21:42;;;;;;;9.27;3.75;;;;;;;11.05;100.00;102264.22;5016493;28;20057;-69
2021/09/28 06:24:10;;;;;;;11.35;3.72;;;;;;;11.03;100.00;102271.34;5014697;28;20118;-69
2021/09/28 06:26:38;;;;;;;9.50;3.00;;;;;;;11.03;100.00;102266.00;5015936;28;20049;-72
2021/09/28 06:29:07;;;;;;;17.95;4.78;;;;;;;11.06;100.00;102270.44;5016686;28;20114;-68
2021/09/28 06:31:35;;;;;;;13.27;3.63;;;;;;;11.02;100.00;102259.78;5013991;28;20240;-72
2021/09/28 06:34:03;;;;;;;14.45;4.35;;;;;;;11.12;100.00;102273.06;5016753;28;20053;-75
2021/09/28 06:36:31;;;;;;;14.73;4.40;;;;;;;11.14;100.00;102273.91;5013988;28;20468;-72
2021/09/28 06:39:00;;;;;;;17.42;4.50;;;;;;;11.13;100.00;102275.69;5018590;28;20057;-75
2021/09/28 06:41:28;;;;;;;10.75;3.83;;;;;;;11.17;100.00;102272.09;5012494;28;20044;-73
2021/09/28 06:43:58;;;;;;;13.05;5.03;;;;;;;11.23;100.00;102284.47;5016815;28;20088;-72
2021/09/28 06:46:27;;;;;;;12.27;4.13;;;;;;;11.30;100.00;102271.94;5015684;28;20084;-72
2021/09/28 06:48:55;;;;;;;15.05;4.10;;;;;;;11.31;100.00;102282.59;5013916;28;20045;-73
2021/09/28 06:51:23;;;;;;;12.77;4.13;;;;;;;11.34;100.00;102281.66;5016131;28;20092;-69
2021/09/28 06:53:51;;;;;;;11.68;3.90;;;;;;;11.37;100.00;102273.63;5004127;28;20052;-69
2021/09/28 06:56:20;;;;;;;12.05;3.45;;;;;;;11.40;100.00;102273.59;5009318;28;20049;-68
2021/09/28 06:58:51;;;;;;;20.88;3.88;;;;;;;11.42;100.00;102268.22;5011426;28;20067;-68
2021/09/28 07:01:18;;;;;;;15.52;4.18;;;;;;;11.47;100.00;102274.41;5010327;28;20208;-67
2021/09/28 07:03:49;;;;;;;13.32;4.43;;;;;;;11.50;100.00;102272.56;5009141;28;20166;-70
2021/09/28 07:06:17;;;;;;;10.77;4.03;;;;;;;11.55;100.00;102278.72;5008575;28;20136;-71
2021/09/28 07:08:44;;;;;;;11.30;3.97;;;;;;;11.55;100.00;102273.38;5013630;28;20077;-71
2021/09/28 07:11:13;;;;;;;8.77;4.40;;;;;;;11.61;100.00;102274.22;5005196;28;20276;-71
2021/09/28 07:13:41;;;;;;;18.52;4.53;;;;;;;11.67;100.00;102274.13;5012789;28;20065;-71
2021/09/28 07:16:09;;;;;;;12.60;4.30;;;;;;;11.70;100.00;102274.09;5011745;28;20136;-71
2021/09/28 07:19:02;;;;;;;9.90;3.90;;;;;;;11.76;100.00;102279.34;5009538;28;20118;-71
2021/09/28 07:21:30;;;;;;;11.30;3.90;;;;;;;11.89;100.00;102288.97;5009667;28;20057;-71
2021/09/28 07:23:58;;;;;;;13.25;4.15;;;;;;;11.95;100.00;102290.69;5011464;28;20133;-70
2021/09/28 07:26:26;;;;;;;15.07;4.45;;;;;;;12.15;100.00;102283.25;5010269;28;20096;-70
2021/09/28 07:28:53;;;;;;;13.45;4.85;;;;;;;12.30;100.00;102286.59;5005658;28;20160;-70
2021/09/28 07:31:21;;;;;;;12.20;4.10;;;;;;;12.47;99.38;102295.22;5008412;28;20117;-70
2021/09/28 07:33:49;;;;;;;16.65;4.55;;;;;;;12.51;97.87;102288.94;5007632;28;20397;-71
2021/09/28 07:36:19;;;;;;;20.15;4.82;;;;;;;12.78;97.33;102288.44;5013247;28;20045;-70
2021/09/28 07:39:10;;;;;;;9.75;3.75;;;;;;;13.13;96.79;102285.09;5017223;28;20092;-70
2021/09/28 07:41:43;;;;;;;10.20;3.55;;;;;;;13.35;95.27;102285.59;5006281;28;20064;-70
2021/09/28 07:44:10;;;;;;;13.18;4.05;;;;;;;13.52;93.90;102284.31;5013516;28;20132;-71
2021/09/28 07:46:38;;;;;;;11.25;3.97;;;;;;;13.59;93.43;102289.53;5011109;28;20144;-70
2021/09/28 07:49:06;;;;;;;18.67;4.30;;;;;;;13.57;92.58;102286.03;5015481;28;20045;-69
2021/09/28 07:51:37;;;;;;;9.02;3.88;;;;;;;13.92;91.69;102292.38;5018201;28;20250;-70
2021/09/28 07:54:05;;;;;;;12.23;3.95;;;;;;;13.85;91.73;102288.06;5006912;28;20088;-68
2021/09/28 07:56:33;;;;;;;12.65;3.67;;;;;;;13.99;91.24;102293.13;5012245;28;20481;-71
2021/09/28 07:59:02;;;;;;;10.10;3.70;;;;;;;14.16;89.54;102290.91;5006311;28;20140;-69
2021/09/28 08:01:30;;;;;;;10.50;3.28;;;;;;;14.16;89.64;102298.97;5008220;28;20056;-69
2021/09/28 08:03:59;;;;;;;10.65;3.05;;;;;;;14.14;88.88;102308.00;5009373;28;20776;-70
2021/09/28 08:06:27;;;;;;;12.60;3.10;;;;;;;14.43;89.26;102293.84;5008619;28;20053;-70
2021/09/28 08:08:56;;;;;;;14.07;3.53;;;;;;;14.47;87.35;102289.28;5008873;28;20080;-70
2021/09/28 08:11:23;;;;;;;9.20;3.08;;;;;;;14.78;86.88;102284.03;4999554;28;20179;-70
2021/09/28 08:13:51;;;;;;;7.78;3.42;;;;;;;14.97;86.60;102289.78;5006491;28;20158;-71
2021/09/28 08:16:19;;;;;;;10.10;3.33;;;;;;;14.97;85.55;102288.91;5011577;28;20566;-69
2021/09/28 08:18:48;;;;;;;12.80;4.07;;;;;;;15.09;85.46;102293.94;5006313;28;20077;-68
2021/09/28 08:21:16;;;;;;;13.15;4.00;;;;;;;15.16;85.38;102292.84;5015481;28;20049;-69
2021/09/28 08:23:44;;;;;;;15.02;3.75;;;;;;;15.17;84.08;102291.94;5000908;28;20083;-69
2021/09/28 08:29:12;;;;;;;10.18;3.10;;;;;;;15.21;83.77;102287.34;5007283;28;20140;-69
2021/09/28 08:31:42;;;;;;;14.07;3.58;;;;;;;15.54;82.34;102289.97;5004910;28;20198;-69
2021/09/28 08:34:11;;;;;;;11.20;2.85;;;;;;;15.28;81.69;102297.00;5010154;28;20143;-69
2021/09/28 08:36:40;;;;;;;9.07;3.63;;;;;;;15.51;81.75;102296.34;5004881;28;20590;-69
2021/09/28 08:39:11;;;;;;;12.18;2.97;;;;;;;15.46;81.74;102300.94;5009320;28;20222;-69
2021/09/28 08:41:42;;;;;;;8.10;2.40;;;;;;;15.54;80.92;102306.97;5000121;28;20160;-69
2021/09/28 08:44:10;;;;;;;9.68;2.58;;;;;;;15.75;81.59;102307.25;5014705;28;20053;-70
2021/09/28 08:46:38;;;;;;;15.00;2.80;;;;;;;15.48;79.92;102293.72;5010830;28;20342;-70
2021/09/28 08:49:07;;;;;;;15.70;3.20;;;;;;;15.75;79.64;102300.13;5007234;28;20053;-70
2021/09/28 08:51:40;;;;;;;7.20;2.92;;;;;;;16.04;79.29;102293.81;5011128;28;20048;-70
2021/09/28 08:54:08;;;;;;;10.25;2.97;;;;;;;16.14;77.37;102297.09;4999173;28;20049;-73
2021/09/28 08:56:36;;;;;;;14.25;3.30;;;;;;;16.25;78.76;102288.66;5012313;28;20494;-68
2021/09/28 08:59:10;;;;;;;9.45;2.72;;;;;;;16.20;77.07;102296.88;5006112;28;20073;-69
2021/09/28 09:01:55;;;;;;;8.40;2.63;;;;;;;16.24;76.85;102294.97;5004074;28;20042;-73
2021/09/28 09:04:23;;;;;;;12.90;3.10;;;;;;;16.07;75.61;102295.50;5009446;28;20140;-70
2021/09/28 09:07:23;;;;;;;13.30;3.15;;;;;;;16.39;73.93;102297.16;5005928;28;20083;-73
2021/09/28 09:09:51;;;;;;;15.07;3.30;;;;;;;16.35;74.73;102298.22;5013359;28;20071;-69
2021/09/28 09:12:33;;;;;;;10.80;3.22;;;;;;;16.59;76.14;102298.31;5003287;28;20160;-69
2021/09/28 09:15:23;;;;;;;12.35;3.00;;;;;;;16.36;75.74;102294.59;5011138;28;20053;-73
2021/09/28 09:17:53;;;;;;;18.38;3.60;;;;;;;16.47;74.81;102290.66;5003443;28;20057;-71
2021/09/28 09:20:38;;;;;;;11.48;3.17;;;;;;;16.70;74.42;102279.97;5013485;28;20049;-69
2021/09/28 09:23:26;;;;;;;13.18;3.08;;;;;;;16.95;72.47;102274.59;5007616;28;20053;-69
2021/09/28 09:26:01;;;;;;;12.95;3.00;;;;;;;17.62;73.86;102285.63;5011924;28;20205;-72
2021/09/28 09:28:39;;;;;;;13.82;2.95;;;;;;;17.40;72.08;102280.16;5004090;28;20604;-71
2021/09/28 09:31:21;;;;;;;17.08;4.32;;;;;;;17.62;70.77;102282.91;5005006;28;20065;-72
2021/09/28 09:33:53;;;;;;;20.63;3.33;;;;;;;17.54;71.55;102277.84;5008781;28;20494;-68
2021/09/28 09:36:23;;;;;;;12.60;3.33;;;;;;;17.59;71.02;102272.22;5010155;28;20140;-69
2021/09/28 09:38:57;;;;;;;15.35;3.40;;;;;;;17.89;71.06;102276.47;5009342;28;20045;-68
2021/09/28 09:41:28;;;;;;;11.40;3.20;;;;;;;17.66;69.74;102265.69;5008225;28;20362;-69
2021/09/28 09:44:06;;;;;;;12.57;2.80;;;;;;;18.08;70.19;102275.72;5010408;28;20155;-71
2021/09/28 09:46:44;;;;;;;10.85;3.17;;;;;;;18.05;69.26;102270.47;5010096;28;20492;-69
2021/09/28 09:49:15;;;;;;;13.05;3.40;;;;;;;18.07;70.31;102272.13;5009589;28;20049;-69
2021/09/28 09:51:47;;;;;;;11.80;3.78;;;;;;;18.37;69.66;102262.81;5009972;28;20061;-68
2021/09/28 09:54:16;;;;;;;13.65;3.20;;;;;;;18.32;67.90;102268.44;5007980;28;20485;-69
2021/09/28 09:56:46;;;;;;;12.80;3.50;;;;;;;18.06;69.88;102266.78;5010439;28;20079;-69
2021/09/28 09:59:16;;;;;;;13.95;3.60;;;;;;;17.43;69.79;102264.72;5013146;28;20052;-71
2021/09/28 10:01:46;;;;;;;11.15;3.05;;;;;;;18.09;70.14;102266.69;5009480;28;20057;-71
2021/09/28 10:04:16;;;;;;;15.88;3.35;;;;;;;18.15;68.39;102265.53;5008921;28;20122;-68
2021/09/28 10:07:08;;;;;;;12.77;3.60;;;;;;;18.10;67.67;102268.44;5007353;28;20445;-70
2021/09/28 10:09:59;;;;;;;17.92;3.95;;;;;;;18.11;68.55;102271.06;5010469;28;20072;-72
2021/09/28 10:12:36;;;;;;;15.80;4.00;;;;;;;17.91;67.63;102261.09;5009207;28;20045;-66
2021/09/28 10:15:09;;;;;;;11.27;3.17;;;;;;;17.87;69.34;102261.28;5012784;28;20053;-69
2021/09/28 10:18:05;;;;;;;10.02;3.08;;;;;;;17.81;69.25;102248.88;5009822;28;20140;-70
2021/09/28 10:20:57;;;;;;;12.73;3.20;;;;;;;18.18;68.43;102252.78;5015345;28;20056;-68
2021/09/28 10:23:25;;;;;;;13.07;2.92;;;;;;;18.39;67.19;102251.00;5010641;28;20057;-69
2021/09/28 10:26:15;;;;;;;11.30;3.10;;;;;;;18.31;66.84;102246.88;5017587;28;20067;-68
2021/09/28 10:29:51;;;;;;;15.10;3.90;;;;;;;18.03;67.73;102242.59;5010242;28;20430;-72
2021/09/28 10:32:49;;;;;;;11.77;3.08;;;;;;;17.92;66.64;102246.63;4978045;28;20310;-70
2021/09/28 10:35:20;;;;;;;13.60;3.22;;;;;;;18.22;66.75;102246.31;5013599;28;20119;-68
2021/09/28 10:37:52;;;;;;;20.70;4.43;;;;;;;18.02;66.18;102240.88;5016248;28;20073;-67
2021/09/28 10:40:51;;;;;;;15.18;3.17;;;;;;;17.64;68.24;102254.03;5010799;28;20141;-69
2021/09/28 10:43:28;;;;;;;13.45;3.10;;;;;;;17.73;67.04;102238.38;5015227;28;20053;-69
2021/09/28 10:45:57;;;;;;;12.57;3.33;;;;;;;18.42;66.05;102226.56;5010312;28;20056;-70
2021/09/28 10:48:37;;;;;;;13.82;3.47;;;;;;;18.67;63.31;102234.47;5016816;28;20156;-69
2021/09/28 10:51:13;;;;;;;13.52;3.13;;;;;;;18.43;63.78;102232.84;5013269;28;20053;-68
2021/09/28 10:53:44;;;;;;;12.80;3.00;;;;;;;18.10;64.66;102228.81;5007697;28;20053;-69
2021/09/28 10:56:13;;;;;;;9.88;2.78;;;;;;;18.23;65.87;102218.34;5009913;28;20057;-68
2021/09/28 10:58:55;;;;;;;7.95;2.90;;;;;;;18.85;63.83;102215.72;5011289;28;20069;-68
2021/09/28 11:01:25;;;;;;;12.75;3.58;;;;;;;19.15;62.90;102205.28;5006128;28;20305;-69
2021/09/28 11:04:02;;;;;;;14.55;2.83;;;;;;;18.62;63.09;102198.63;5005924;28;20757;-70
2021/09/28 11:07:13;;;;;;;12.70;2.55;;;;;;;18.23;63.92;102210.25;5015416;28;20561;-69
2021/09/28 11:09:47;;;;;;;10.18;2.42;;;;;;;18.05;63.22;102209.22;5009153;28;20052;-69
2021/09/28 11:12:15;;;;;;;;;;;;;;;17.96;62.37;102211.41;5014709;28;20045;-67
2021/09/28 11:14:45;;;;;;;10.43;2.50;;;;;;;18.21;61.58;102208.56;5014913;28;19920;-67
2021/09/28 11:17:16;;;;;;;7.80;1.92;;;;;;;18.48;60.00;102193.84;5010732;28;20498;-67
2021/09/28 11:19:44;;;;;;;14.15;3.08;;;;;;;18.74;59.84;102201.75;5016850;28;20136;-68
2021/09/28 11:22:21;;;;;;;8.70;2.35;;;;;;;18.95;58.49;102192.72;5003677;28;20254;-69
2021/09/28 11:24:50;;;;;;;11.60;2.33;;;;;;;18.82;59.16;102191.47;5018343;28;20049;-69
2021/09/28 11:27:18;;;;;;;9.50;2.22;;;;;;;18.85;58.81;102184.13;5012606;28;20059;-69
2021/09/28 11:29:46;;;;;;;7.90;2.25;;;;;;;19.09;60.34;102185.78;5009376;28;20162;-67
2021/09/28 11:32:15;;;;;;;9.38;2.40;;;;;;;19.04;58.21;102177.88;5016792;28;20356;-67
2021/09/28 11:34:44;;;;;;;8.82;2.50;;;;;;;18.84;58.26;102178.78;5004706;28;20130;-67
2021/09/28 11:37:22;;;;;;;9.35;1.98;;;;;;;19.17;56.52;102180.88;5015208;28;20060;-69